createdAt,value
2018-03-26T00:00:05.041Z,4.72
2018-03-26T00:00:54.107Z,6.18
2018-03-26T00:01:43.236Z,4.53
2018-03-26T00:02:32.293Z,3.22
2018-03-26T00:03:21.357Z,2.95
2018-03-26T00:04:10.447Z,4.95
2018-03-26T00:04:59.580Z,4.70
2018-03-26T00:05:48.633Z,4.72
2018-03-26T00:06:37.786Z,3.33
2018-03-26T00:07:26.876Z,2.78
2018-03-26T00:08:15.949Z,2.83
2018-03-26T00:09:05.054Z,2.65
2018-03-26T00:09:54.158Z,3.00
2018-03-26T00:10:43.217Z,4.03
2018-03-26T00:11:32.302Z,2.35
2018-03-26T00:12:21.442Z,2.62
2018-03-26T00:13:10.571Z,1.27
2018-03-26T00:13:59.689Z,1.17
2018-03-26T00:14:48.751Z,0.70
2018-03-26T00:15:37.854Z,1.40
2018-03-26T00:16:26.915Z,1.62
2018-03-26T00:17:15.975Z,2.00
2018-03-26T00:18:05.047Z,1.25
2018-03-26T00:18:54.112Z,0.80
2018-03-26T00:19:43.339Z,1.10
2018-03-26T00:20:32.510Z,0.70
2018-03-26T00:21:21.559Z,1.15
2018-03-26T00:22:10.725Z,1.33
2018-03-26T00:22:59.792Z,1.20
2018-03-26T00:23:48.870Z,1.33
2018-03-26T00:24:37.955Z,1.20
2018-03-26T00:25:27.024Z,1.62
2018-03-26T00:26:16.086Z,1.35
2018-03-26T00:27:05.162Z,1.83
2018-03-26T00:27:54.319Z,1.55
2018-03-26T00:28:43.392Z,1.67
2018-03-26T00:29:32.496Z,3.17
2018-03-26T00:30:21.562Z,3.75
2018-03-26T00:31:10.628Z,6.97
2018-03-26T00:31:59.695Z,10.20
2018-03-26T00:32:48.861Z,6.32
2018-03-26T00:33:37.935Z,7.62
2018-03-26T00:34:27.004Z,14.05
2018-03-26T00:35:16.112Z,8.77
2018-03-26T00:36:05.318Z,8.45
2018-03-26T00:36:54.395Z,11.10
2018-03-26T00:37:43.467Z,11.63
2018-03-26T00:38:32.530Z,10.85
2018-03-26T00:39:21.621Z,15.65
2018-03-26T00:40:10.732Z,17.45
2018-03-26T00:40:59.931Z,20.88
2018-03-26T00:41:49.046Z,18.10
2018-03-26T00:42:38.126Z,23.58
2018-03-26T00:43:27.227Z,14.55
2018-03-26T00:44:16.310Z,19.45
2018-03-26T00:45:05.435Z,22.15
2018-03-26T00:45:54.500Z,20.27
2018-03-26T00:46:43.604Z,17.52
2018-03-26T00:47:32.701Z,18.70
2018-03-26T00:48:21.781Z,23.33
2018-03-26T00:49:10.863Z,18.10
2018-03-26T00:50:00.136Z,20.08
2018-03-26T00:50:49.266Z,19.55
2018-03-26T00:51:38.375Z,17.45
2018-03-26T00:52:27.504Z,19.25
2018-03-26T00:53:28.330Z,22.40
2018-03-26T00:54:17.441Z,18.35
2018-03-26T00:55:06.547Z,12.45
2018-03-26T00:55:55.713Z,15.90
2018-03-26T00:56:44.812Z,16.30
2018-03-26T00:57:33.990Z,12.05
2018-03-26T00:58:23.086Z,6.05
2018-03-26T00:59:12.151Z,3.92
2018-03-26T01:00:01.213Z,3.80
2018-03-26T01:00:50.377Z,4.28
2018-03-26T01:01:39.464Z,4.30
2018-03-26T01:02:28.546Z,4.82
2018-03-26T01:03:17.628Z,11.65
2018-03-26T01:04:06.752Z,5.50
2018-03-26T01:04:55.833Z,6.85
2018-03-26T01:05:44.914Z,4.43
2018-03-26T01:06:34.074Z,3.95
2018-03-26T01:07:23.163Z,4.50
2018-03-26T01:08:12.224Z,3.67
2018-03-26T01:09:10.110Z,2.90
2018-03-26T01:09:59.211Z,4.35
2018-03-26T01:10:48.284Z,2.87
2018-03-26T01:11:37.367Z,2.55
2018-03-26T01:12:26.462Z,5.80
2018-03-26T01:13:15.520Z,5.97
2018-03-26T01:14:04.613Z,5.75
2018-03-26T01:14:53.682Z,5.55
2018-03-26T01:15:42.904Z,5.97
2018-03-26T01:16:31.980Z,5.95
2018-03-26T01:17:21.046Z,6.78
2018-03-26T01:18:10.127Z,6.97
2018-03-26T01:18:59.229Z,6.70
2018-03-26T01:19:48.303Z,8.43
2018-03-26T01:20:37.362Z,13.35
2018-03-26T01:21:26.471Z,10.18
2018-03-26T01:22:15.559Z,14.90
2018-03-26T01:23:04.722Z,18.37
2018-03-26T01:23:53.798Z,29.02
2018-03-26T01:24:42.939Z,41.78
2018-03-26T01:25:32.018Z,56.17
2018-03-26T01:26:21.130Z,50.97
2018-03-26T01:27:10.208Z,58.92
2018-03-26T01:27:59.282Z,52.92
2018-03-26T01:28:48.368Z,48.38
2018-03-26T01:29:37.495Z,30.05
2018-03-26T01:30:26.571Z,29.42
2018-03-26T01:31:15.866Z,31.90
2018-03-26T01:32:04.954Z,23.02
2018-03-26T01:32:54.017Z,25.90
2018-03-26T01:33:43.097Z,16.70
2018-03-26T01:34:32.180Z,17.95
2018-03-26T01:35:21.267Z,17.67
2018-03-26T01:36:10.338Z,16.90
2018-03-26T01:36:59.456Z,16.85
2018-03-26T01:37:48.522Z,20.17
2018-03-26T01:38:37.586Z,16.60
2018-03-26T01:39:26.682Z,15.05
2018-03-26T01:40:15.766Z,14.57
2018-03-26T01:41:04.855Z,13.45
2018-03-26T01:41:53.961Z,11.48
2018-03-26T01:42:43.070Z,10.93
2018-03-26T01:43:32.121Z,9.77
2018-03-26T01:44:21.189Z,10.18
2018-03-26T01:45:10.303Z,11.98
2018-03-26T01:45:59.359Z,11.23
2018-03-26T01:46:48.432Z,7.82
2018-03-26T01:47:37.496Z,9.27
2018-03-26T01:48:26.658Z,8.88
2018-03-26T01:49:15.720Z,7.68
2018-03-26T01:50:04.850Z,9.63
2018-03-26T01:50:53.917Z,8.20
2018-03-26T01:51:42.996Z,9.23
2018-03-26T01:52:32.064Z,7.43
2018-03-26T01:53:21.169Z,11.68
2018-03-26T01:54:10.394Z,8.52
2018-03-26T01:54:59.465Z,9.23
2018-03-26T01:55:48.539Z,10.30
2018-03-26T01:56:39.207Z,8.98
2018-03-26T01:57:28.308Z,8.20
2018-03-26T01:58:17.376Z,7.65
2018-03-26T01:59:06.482Z,9.35
2018-03-26T01:59:55.545Z,9.02
2018-03-26T02:00:44.607Z,7.95
2018-03-26T02:01:33.677Z,9.05
2018-03-26T02:02:22.741Z,10.18
2018-03-26T02:03:11.849Z,9.55
2018-03-26T02:04:00.914Z,10.15
2018-03-26T02:04:50.012Z,7.07
2018-03-26T02:05:39.174Z,10.23
2018-03-26T02:06:28.253Z,8.35
2018-03-26T02:07:17.318Z,6.35
2018-03-26T02:08:06.394Z,6.65
2018-03-26T02:08:55.606Z,6.30
2018-03-26T02:09:44.664Z,6.93
2018-03-26T02:10:33.783Z,7.70
2018-03-26T02:11:22.854Z,9.55
2018-03-26T02:12:11.988Z,10.40
2018-03-26T02:13:01.050Z,10.98
2018-03-26T02:13:50.121Z,8.63
2018-03-26T02:14:39.238Z,8.13
2018-03-26T02:15:28.321Z,10.32
2018-03-26T02:16:17.388Z,9.57
2018-03-26T02:17:06.452Z,13.32
2018-03-26T02:17:55.515Z,14.18
2018-03-26T02:18:44.624Z,11.35
2018-03-26T02:19:33.698Z,11.38
2018-03-26T02:20:22.909Z,12.10
2018-03-26T02:21:11.989Z,11.12
2018-03-26T02:22:01.115Z,12.55
2018-03-26T02:22:50.194Z,10.15
2018-03-26T02:23:39.283Z,10.13
2018-03-26T02:24:28.392Z,7.30
2018-03-26T02:25:17.491Z,10.50
2018-03-26T02:26:06.576Z,18.50
2018-03-26T02:26:55.681Z,13.15
2018-03-26T02:27:44.809Z,14.25
2018-03-26T02:28:33.896Z,13.20
2018-03-26T02:29:22.970Z,12.57
2018-03-26T02:30:12.051Z,11.32
2018-03-26T02:31:01.157Z,7.45
2018-03-26T02:31:50.233Z,5.32
2018-03-26T02:32:39.367Z,7.10
2018-03-26T02:33:28.438Z,4.75
2018-03-26T02:34:17.510Z,5.25
2018-03-26T02:35:06.589Z,3.50
2018-03-26T02:35:55.675Z,4.00
2018-03-26T02:36:44.739Z,2.53
2018-03-26T02:37:33.952Z,7.93
2018-03-26T02:38:23.019Z,7.45
2018-03-26T02:39:12.083Z,7.90
2018-03-26T02:40:01.152Z,12.45
2018-03-26T02:40:50.225Z,8.65
2018-03-26T02:41:39.294Z,7.82
2018-03-26T02:42:28.350Z,8.85
2018-03-26T02:43:17.459Z,8.98
2018-03-26T02:44:06.549Z,15.52
2018-03-26T02:44:55.629Z,15.13
2018-03-26T02:45:44.699Z,14.57
2018-03-26T02:46:33.770Z,21.17
2018-03-26T02:47:22.855Z,144.23
2018-03-26T02:48:11.944Z,54.03
2018-03-26T02:49:01.183Z,33.58
2018-03-26T02:49:50.258Z,39.92
2018-03-26T02:50:39.446Z,40.70
2018-03-26T02:51:28.497Z,35.55
2018-03-26T02:52:17.631Z,44.85
2018-03-26T02:53:06.711Z,33.28
2018-03-26T02:53:55.931Z,217.27
2018-03-26T02:54:45.022Z,143.55
2018-03-26T02:55:34.110Z,118.30
2018-03-26T02:56:23.190Z,92.03
2018-03-26T02:57:12.276Z,118.50
2018-03-26T02:58:01.364Z,101.25
2018-03-26T02:58:50.473Z,144.35
2018-03-26T02:59:40.595Z,76.35
2018-03-26T03:00:29.691Z,65.05
2018-03-26T03:01:18.782Z,70.55
2018-03-26T03:02:07.886Z,52.97
2018-03-26T03:02:56.972Z,44.67
2018-03-26T03:03:46.067Z,28.05
2018-03-26T03:04:35.157Z,27.77
2018-03-26T03:05:24.278Z,31.23
2018-03-26T03:06:16.440Z,27.27
2018-03-26T03:07:05.520Z,32.53
2018-03-26T03:07:54.611Z,32.08
2018-03-26T03:08:43.688Z,25.67
2018-03-26T03:09:32.772Z,25.58
2018-03-26T03:10:21.898Z,18.25
2018-03-26T03:11:11.128Z,18.33
2018-03-26T03:12:00.200Z,18.00
2018-03-26T03:12:49.278Z,15.57
2018-03-26T03:13:38.379Z,18.67
2018-03-26T03:14:27.463Z,20.42
2018-03-26T03:15:16.537Z,13.52
2018-03-26T03:16:05.622Z,14.05
2018-03-26T03:16:54.939Z,16.83
2018-03-26T03:17:44.021Z,15.73
2018-03-26T03:18:33.090Z,15.43
2018-03-26T03:19:22.170Z,16.62
2018-03-26T03:20:11.245Z,16.45
2018-03-26T03:21:00.322Z,19.85
2018-03-26T03:21:49.392Z,18.83
2018-03-26T03:22:38.573Z,18.83
2018-03-26T03:23:27.608Z,19.85
2018-03-26T03:24:16.689Z,17.40
2018-03-26T03:25:05.829Z,21.17
2018-03-26T03:25:54.913Z,23.40
2018-03-26T03:26:44.019Z,19.42
2018-03-26T03:27:33.094Z,24.55
2018-03-26T03:28:22.192Z,23.42
2018-03-26T03:29:11.266Z,15.95
2018-03-26T03:30:00.341Z,17.12
2018-03-26T03:30:50.313Z,16.77
2018-03-26T03:31:39.387Z,17.92
2018-03-26T03:32:28.463Z,20.08
2018-03-26T03:33:17.543Z,14.05
2018-03-26T03:34:09.861Z,19.70
2018-03-26T03:34:58.932Z,20.37
2018-03-26T03:35:48.037Z,26.73
2018-03-26T03:36:37.113Z,36.85
2018-03-26T03:37:26.205Z,31.10
2018-03-26T03:38:15.273Z,27.05
2018-03-26T03:39:04.405Z,19.90
2018-03-26T03:39:53.515Z,23.15
2018-03-26T03:40:42.582Z,25.27
2018-03-26T03:41:31.666Z,22.77
2018-03-26T03:42:20.743Z,28.27
2018-03-26T03:43:09.856Z,27.00
2018-03-26T03:43:58.955Z,27.77
2018-03-26T03:44:48.049Z,25.05
2018-03-26T03:45:38.073Z,27.30
2018-03-26T03:46:27.144Z,26.30
2018-03-26T03:47:16.226Z,24.45
2018-03-26T03:48:05.334Z,25.70
2018-03-26T03:48:54.479Z,110.78
2018-03-26T03:49:43.566Z,34.38
2018-03-26T03:50:32.670Z,48.05
2018-03-26T03:51:21.756Z,85.38
2018-03-26T03:52:10.833Z,111.70
2018-03-26T03:52:59.960Z,127.97
2018-03-26T03:53:49.214Z,112.62
2018-03-26T03:54:38.429Z,46.10
2018-03-26T03:55:27.539Z,43.65
2018-03-26T03:56:16.613Z,43.87
2018-03-26T03:57:05.714Z,44.85
2018-03-26T03:57:54.903Z,44.42
2018-03-26T03:58:44.023Z,42.28
2018-03-26T03:59:36.142Z,38.42
2018-03-26T04:00:25.209Z,33.88
2018-03-26T04:01:14.289Z,36.40
2018-03-26T04:02:03.386Z,36.85
2018-03-26T04:02:52.478Z,34.30
2018-03-26T04:03:41.621Z,32.97
2018-03-26T04:04:30.709Z,43.53
2018-03-26T04:05:19.806Z,99.57
2018-03-26T04:06:08.920Z,100.12
2018-03-26T04:06:58.054Z,228.25
2018-03-26T04:07:47.154Z,288.42
2018-03-26T04:08:36.247Z,155.20
2018-03-26T04:09:25.452Z,152.95
2018-03-26T04:10:14.531Z,112.50
2018-03-26T04:11:03.680Z,91.37
2018-03-26T04:11:52.757Z,83.60
2018-03-26T04:12:41.830Z,72.45
2018-03-26T04:13:30.906Z,76.85
2018-03-26T04:14:20.107Z,65.00
2018-03-26T04:15:09.209Z,52.08
2018-03-26T04:15:58.287Z,50.88
2018-03-26T04:16:47.361Z,53.70
2018-03-26T04:17:36.625Z,80.32
2018-03-26T04:18:25.714Z,52.60
2018-03-26T04:19:14.820Z,53.15
2018-03-26T04:20:03.969Z,51.80
2018-03-26T04:20:53.038Z,71.32
2018-03-26T04:21:42.119Z,106.90
2018-03-26T04:22:31.235Z,116.12
2018-03-26T04:23:20.315Z,93.55
2018-03-26T04:24:09.394Z,78.15
2018-03-26T04:24:58.481Z,89.15
2018-03-26T04:25:47.729Z,65.47
2018-03-26T04:26:36.850Z,58.75
2018-03-26T04:27:25.974Z,53.15
2018-03-26T04:28:15.055Z,52.05
2018-03-26T04:29:04.259Z,49.40
2018-03-26T04:29:53.441Z,52.40
2018-03-26T04:30:42.599Z,58.30
2018-03-26T04:31:31.742Z,65.10
2018-03-26T04:32:20.906Z,69.95
2018-03-26T04:33:10.158Z,69.62
2018-03-26T04:33:59.272Z,66.87
2018-03-26T04:34:48.413Z,61.08
2018-03-26T04:35:37.516Z,52.38
2018-03-26T04:36:26.841Z,42.13
2018-03-26T04:37:15.998Z,37.50
2018-03-26T04:38:05.146Z,47.30
2018-03-26T04:38:54.262Z,49.03
2018-03-26T04:39:43.431Z,49.35
2018-03-26T04:40:32.648Z,47.42
2018-03-26T04:41:21.874Z,53.35
2018-03-26T04:42:11.023Z,54.88
2018-03-26T04:43:00.166Z,49.42
2018-03-26T04:43:49.291Z,47.15
2018-03-26T04:44:38.422Z,52.13
2018-03-26T04:45:27.529Z,43.53
2018-03-26T04:46:16.674Z,41.37
2018-03-26T04:47:05.777Z,48.72
2018-03-26T04:47:54.973Z,51.58
2018-03-26T04:48:44.144Z,52.03
2018-03-26T04:49:33.221Z,49.03
2018-03-26T04:50:22.505Z,54.22
2018-03-26T04:51:11.639Z,52.75
2018-03-26T04:52:00.715Z,44.95
2018-03-26T04:52:49.834Z,44.67
2018-03-26T04:53:39.146Z,42.13
2018-03-26T04:54:28.241Z,40.53
2018-03-26T04:55:17.345Z,49.42
2018-03-26T04:56:06.451Z,50.45
2018-03-26T04:56:55.819Z,53.05
2018-03-26T04:57:44.939Z,55.65
2018-03-26T04:58:34.762Z,72.05
2018-03-26T04:59:23.864Z,64.15
2018-03-26T05:00:13.090Z,74.93
2018-03-26T05:01:02.242Z,70.55
2018-03-26T05:01:51.356Z,68.15
2018-03-26T05:02:40.424Z,73.68
2018-03-26T05:03:31.334Z,41.90
2018-03-26T05:04:20.474Z,41.88
2018-03-26T05:05:09.648Z,40.70
2018-03-26T05:05:58.807Z,42.30
2018-03-26T05:06:47.952Z,33.63
2018-03-26T05:07:37.414Z,33.78
2018-03-26T05:08:26.606Z,31.83
2018-03-26T05:09:15.721Z,34.20
2018-03-26T05:10:04.854Z,32.63
2018-03-26T05:10:53.968Z,38.42
2018-03-26T05:11:43.148Z,40.17
2018-03-26T05:12:32.268Z,39.08
2018-03-26T05:13:21.425Z,40.78
2018-03-26T05:14:10.590Z,34.45
2018-03-26T05:14:59.675Z,50.55
2018-03-26T05:15:48.753Z,45.92
2018-03-26T05:16:37.865Z,36.33
2018-03-26T05:17:26.969Z,55.17
2018-03-26T05:18:16.087Z,62.88
2018-03-26T05:19:05.195Z,77.95
2018-03-26T05:19:54.578Z,53.67
2018-03-26T05:20:43.682Z,47.03
2018-03-26T05:21:32.799Z,54.97
2018-03-26T05:22:21.909Z,53.83
2018-03-26T05:23:11.014Z,60.10
2018-03-26T05:24:00.211Z,63.35
2018-03-26T05:24:49.314Z,64.75
2018-03-26T05:25:38.415Z,61.20
2018-03-26T05:26:27.531Z,68.90
2018-03-26T05:27:16.665Z,114.95
2018-03-26T05:28:05.773Z,122.30
2018-03-26T05:28:54.884Z,128.77
2018-03-26T05:29:44.071Z,117.03
2018-03-26T05:30:33.162Z,103.28
2018-03-26T05:31:22.284Z,99.32
2018-03-26T05:32:11.411Z,105.05
2018-03-26T05:33:00.514Z,105.57
2018-03-26T05:33:49.640Z,104.25
2018-03-26T05:34:38.790Z,102.43
2018-03-26T05:35:27.885Z,98.05
2018-03-26T05:36:17.030Z,99.32
2018-03-26T05:37:06.140Z,96.85
2018-03-26T05:37:55.494Z,91.47
2018-03-26T05:38:44.586Z,92.95
2018-03-26T05:39:33.786Z,96.40
2018-03-26T05:40:23.088Z,86.30
2018-03-26T05:41:12.323Z,97.05
2018-03-26T05:42:01.405Z,111.88
2018-03-26T05:42:50.503Z,96.80
2018-03-26T05:43:39.617Z,105.93
2018-03-26T05:44:28.738Z,109.00
2018-03-26T05:45:17.962Z,108.22
2018-03-26T05:46:07.092Z,108.30
2018-03-26T05:47:02.314Z,104.35
2018-03-26T05:47:51.391Z,101.03
2018-03-26T05:48:40.480Z,98.32
2018-03-26T05:49:29.542Z,92.93
2018-03-26T05:50:18.647Z,94.50
2018-03-26T05:51:07.723Z,100.05
2018-03-26T05:51:56.788Z,102.28
2018-03-26T05:52:45.867Z,101.35
2018-03-26T05:53:34.937Z,100.05
2018-03-26T05:54:24.062Z,109.65
2018-03-26T05:55:13.132Z,104.45
2018-03-26T05:56:02.242Z,101.70
2018-03-26T05:56:51.330Z,101.22
2018-03-26T05:57:40.405Z,106.00
2018-03-26T05:58:29.480Z,105.93
2018-03-26T05:59:18.558Z,184.50
2018-03-26T06:00:07.668Z,128.32
2018-03-26T06:00:56.748Z,118.05
2018-03-26T06:01:45.964Z,149.20
2018-03-26T06:02:35.032Z,147.32
2018-03-26T06:03:24.125Z,160.20
2018-03-26T06:04:13.197Z,154.93
2018-03-26T06:05:02.267Z,146.70
2018-03-26T06:05:51.347Z,140.50
2018-03-26T06:06:40.414Z,146.93
2018-03-26T06:07:29.607Z,139.35
2018-03-26T06:08:18.686Z,134.45
2018-03-26T06:09:07.850Z,142.45
2018-03-26T06:09:56.914Z,126.00
2018-03-26T06:10:45.992Z,132.75
2018-03-26T06:11:35.068Z,114.37
2018-03-26T06:12:24.169Z,103.40
2018-03-26T06:13:13.241Z,94.10
2018-03-26T06:14:02.316Z,91.00
2018-03-26T06:14:51.378Z,91.75
2018-03-26T06:15:40.444Z,87.47
2018-03-26T06:16:29.551Z,91.82
2018-03-26T06:17:18.650Z,92.72
2018-03-26T06:18:07.916Z,90.35
2018-03-26T06:18:57.138Z,104.30
2018-03-26T06:19:46.224Z,112.00
2018-03-26T06:20:35.326Z,115.55
2018-03-26T06:21:24.424Z,131.15
2018-03-26T06:22:13.512Z,138.90
2018-03-26T06:23:02.617Z,146.32
2018-03-26T06:23:51.714Z,140.55
2018-03-26T06:24:40.851Z,148.27
2018-03-26T06:25:30.028Z,132.18
2018-03-26T06:26:19.349Z,100.90
2018-03-26T06:27:08.440Z,96.43
2018-03-26T06:27:57.533Z,94.95
2018-03-26T06:28:46.638Z,86.15
2018-03-26T06:29:35.741Z,94.75
2018-03-26T06:30:24.899Z,74.40
2018-03-26T06:31:14.057Z,76.07
2018-03-26T06:32:03.154Z,65.82
2018-03-26T06:32:52.238Z,75.55
2018-03-26T06:33:41.357Z,94.68
2018-03-26T06:34:30.448Z,135.18
2018-03-26T06:35:19.543Z,107.65
2018-03-26T06:36:14.890Z,89.00
2018-03-26T06:38:45.505Z,115.07
2018-03-26T06:40:35.506Z,112.18
2018-03-26T06:41:24.882Z,116.57
2018-03-26T06:42:13.962Z,295.33
2018-03-26T06:43:03.041Z,138.10
2018-03-26T06:43:52.359Z,134.50
2018-03-26T06:44:41.494Z,73.03
2018-03-26T06:45:30.555Z,81.18
2018-03-26T06:46:19.632Z,42.75
2018-03-26T06:47:08.726Z,38.67
2018-03-26T06:47:57.818Z,27.95
2018-03-26T06:48:46.889Z,48.05
2018-03-26T06:49:35.955Z,36.75
2018-03-26T06:50:25.090Z,41.42
2018-03-26T06:51:14.140Z,32.40
2018-03-26T06:52:03.203Z,36.80
2018-03-26T06:52:52.361Z,32.72
2018-03-26T06:53:41.432Z,36.83
2018-03-26T06:54:30.513Z,37.08
2018-03-26T06:55:19.573Z,37.90
2018-03-26T06:56:08.646Z,86.95
2018-03-26T06:57:00.486Z,440.02
2018-03-26T06:57:49.570Z,167.07
2018-03-26T06:58:38.783Z,250.70
2018-03-26T06:59:27.866Z,272.02
2018-03-26T07:00:16.941Z,221.95
2018-03-26T07:01:06.303Z,230.10
2018-03-26T07:01:55.342Z,104.53
2018-03-26T13:58:43.640Z,30.02
2018-03-26T13:59:32.955Z,23.60
2018-03-26T14:00:22.131Z,26.67
2018-03-26T14:01:11.290Z,31.70
2018-03-26T14:02:01.675Z,50.20
2018-03-26T14:02:50.828Z,62.50
2018-03-26T14:03:40.035Z,64.18
2018-03-26T14:04:29.291Z,74.18
2018-03-26T14:05:18.532Z,60.22
2018-03-26T14:06:07.735Z,84.35
2018-03-26T14:06:57.672Z,74.00
2018-03-26T14:07:46.841Z,70.28
2018-03-26T14:08:47.903Z,71.32
2018-03-26T14:09:48.877Z,69.00
2018-03-26T14:10:49.732Z,103.18
2018-03-26T14:11:50.620Z,144.25
2018-03-26T14:12:51.469Z,144.80
2018-03-26T14:13:52.382Z,98.25
2018-03-26T14:14:53.499Z,38.47
2018-03-26T14:15:54.308Z,42.67
2018-03-26T14:16:55.213Z,37.33
2018-03-26T14:17:49.816Z,49.75
2018-03-26T14:18:39.092Z,62.65
2018-03-26T14:19:28.305Z,54.03
2018-03-26T14:20:17.479Z,66.82
2018-03-26T14:21:06.648Z,77.18
2018-03-26T14:21:56.591Z,74.72
2018-03-26T14:22:45.748Z,77.15
2018-03-26T14:23:35.791Z,63.83
2018-03-26T14:24:24.990Z,57.97
2018-03-26T14:25:14.153Z,59.22
2018-03-26T14:26:03.277Z,47.10
2018-03-26T14:26:52.393Z,56.17
2018-03-26T14:27:41.513Z,125.18
2018-03-26T14:28:30.673Z,120.35
2018-03-26T14:29:19.822Z,113.12
2018-03-26T14:30:09.839Z,114.50
2018-03-26T14:30:58.950Z,125.50
2018-03-26T14:31:48.053Z,142.20
2018-03-26T14:32:38.155Z,124.18
2018-03-26T14:33:27.289Z,121.30
2018-03-26T14:34:17.335Z,114.50
2018-03-26T14:35:32.723Z,178.20
2018-03-26T14:36:21.872Z,242.05
2018-03-26T14:37:11.424Z,177.35
2018-03-26T14:38:01.213Z,175.27
2018-03-26T14:38:50.540Z,142.25
2018-03-26T14:39:39.710Z,122.93
2018-03-26T14:40:28.886Z,80.32
2018-03-26T14:41:17.979Z,101.57
2018-03-26T14:42:07.072Z,95.07
2018-03-26T14:42:56.219Z,96.70
2018-03-26T14:43:45.372Z,78.53
2018-03-26T14:44:34.507Z,80.00
2018-03-26T14:45:23.621Z,49.92
2018-03-26T14:46:12.745Z,55.75
2018-03-26T14:47:01.885Z,100.62
2018-03-26T14:47:51.000Z,101.60
2018-03-26T14:48:40.228Z,118.93
2018-03-26T14:49:29.365Z,217.57
2018-03-26T14:50:18.490Z,131.87
2018-03-26T14:51:07.624Z,102.38
2018-03-26T14:51:56.773Z,118.00
2018-03-26T14:52:45.952Z,129.45
2018-03-26T14:53:35.101Z,146.82
2018-03-26T14:54:24.327Z,110.18
2018-03-26T14:55:13.483Z,123.43
2018-03-26T14:56:02.704Z,103.03
2018-03-26T14:56:51.834Z,83.72
2018-03-26T14:57:40.960Z,92.35
2018-03-26T14:58:30.132Z,93.60
2018-03-26T14:59:19.290Z,91.32
2018-03-26T15:00:08.606Z,96.68
2018-03-26T15:00:57.739Z,85.10
2018-03-26T15:01:46.870Z,97.18
2018-03-26T15:02:35.992Z,87.95
2018-03-26T15:03:25.137Z,85.65
2018-03-26T15:04:14.380Z,83.57
2018-03-26T15:05:03.686Z,75.60
2018-03-26T15:05:52.864Z,66.20
2018-03-26T15:06:42.028Z,89.10
2018-03-26T15:07:31.175Z,76.20
2018-03-26T15:08:20.301Z,66.57
2018-03-26T15:09:09.547Z,66.22
2018-03-26T15:09:58.678Z,68.35
2018-03-26T15:10:47.845Z,68.10
2018-03-26T15:11:36.976Z,62.47
2018-03-26T15:12:26.104Z,65.07
2018-03-26T15:13:15.228Z,59.90
2018-03-26T15:14:04.403Z,60.38
2018-03-26T15:14:53.612Z,76.05
2018-03-26T15:15:42.734Z,70.85
2018-03-26T15:16:31.911Z,68.47
2018-03-26T15:17:21.024Z,66.18
2018-03-26T15:18:10.178Z,65.55
2018-03-26T15:18:59.288Z,68.47
2018-03-26T15:19:48.399Z,68.37
2018-03-26T15:20:37.629Z,61.03
2018-03-26T15:21:26.756Z,52.62
2018-03-26T15:22:15.876Z,55.20
2018-03-26T15:23:05.007Z,51.75
2018-03-26T15:23:54.130Z,83.12
2018-03-26T15:24:43.245Z,71.15
2018-03-26T15:25:32.572Z,61.75
2018-03-26T15:26:21.805Z,73.22
2018-03-26T15:27:10.995Z,80.03
2018-03-26T15:28:00.069Z,81.50
2018-03-26T15:28:49.189Z,72.32
2018-03-26T15:29:38.309Z,77.28
2018-03-26T15:30:27.435Z,93.18
2018-03-26T15:31:16.621Z,108.95
2018-03-26T15:32:05.803Z,96.35
2018-03-26T15:32:54.928Z,101.93
2018-03-26T15:33:44.057Z,97.45
2018-03-26T15:34:33.215Z,96.25
2018-03-26T15:35:22.349Z,87.90
2018-03-26T15:36:11.469Z,86.78
2018-03-26T15:37:00.654Z,75.22
2018-03-26T15:37:49.841Z,67.55
2018-03-26T15:38:39.060Z,69.95
2018-03-26T15:39:28.254Z,76.20
2018-03-26T15:40:17.385Z,71.68
2018-03-26T15:41:06.509Z,78.60
2018-03-26T15:41:55.632Z,80.18
2018-03-26T15:42:44.760Z,71.93
2018-03-26T15:43:33.893Z,89.13
2018-03-26T15:44:23.015Z,95.62
2018-03-26T15:45:12.285Z,110.70
2018-03-26T15:46:01.404Z,97.20
2018-03-26T15:46:50.542Z,80.38
2018-03-26T15:47:39.688Z,71.37
2018-03-26T15:48:28.881Z,74.07
2018-03-26T15:49:18.062Z,69.85
2018-03-26T15:50:07.272Z,72.35
2018-03-26T15:50:56.535Z,76.75
2018-03-26T15:51:45.676Z,77.18
2018-03-26T15:52:34.812Z,79.18
2018-03-26T15:53:23.980Z,71.53
2018-03-26T15:54:13.098Z,74.87
2018-03-26T15:55:02.252Z,82.03
2018-03-26T15:55:51.369Z,88.37
2018-03-26T15:56:40.493Z,99.20
2018-03-26T15:57:29.636Z,84.60
2018-03-26T15:58:18.760Z,99.18
2018-03-26T15:59:07.960Z,101.45
2018-03-26T15:59:57.189Z,110.75
2018-03-26T16:00:46.341Z,137.15
2018-03-26T16:01:35.486Z,123.50
2018-03-26T16:02:24.656Z,145.15
2018-03-26T16:03:19.276Z,337.60
2018-03-26T16:04:08.512Z,191.57
2018-03-26T16:04:58.579Z,169.80
2018-03-26T16:05:47.710Z,263.95
2018-03-26T16:06:36.857Z,182.43
2018-03-26T16:07:26.009Z,165.32
2018-03-26T16:08:15.136Z,144.48
2018-03-26T16:09:04.377Z,122.75
2018-03-26T16:09:53.707Z,149.25
2018-03-26T16:10:42.837Z,358.45
2018-03-26T16:11:31.975Z,301.48
2018-03-26T16:12:21.099Z,195.43
2018-03-26T16:13:10.245Z,171.48
2018-03-26T16:13:59.390Z,118.00
2018-03-26T16:14:48.514Z,142.87
2018-03-26T16:15:37.752Z,152.27
2018-03-26T16:16:26.891Z,142.18
2018-03-26T16:17:16.037Z,122.93
2018-03-26T16:18:05.212Z,120.30
2018-03-26T16:18:54.556Z,117.82
2018-03-26T16:19:43.828Z,111.85
2018-03-26T16:20:33.080Z,111.62
2018-03-26T16:21:22.214Z,105.80
2018-03-26T16:22:11.369Z,113.88
2018-03-26T16:23:00.496Z,107.72
2018-03-26T16:23:49.625Z,95.38
2018-03-26T16:24:38.755Z,95.70
2018-03-26T16:25:27.873Z,86.05
2018-03-26T16:26:17.067Z,78.72
2018-03-26T16:27:06.214Z,74.82
2018-03-26T16:27:55.335Z,76.05
2018-03-26T16:28:44.461Z,81.30
2018-03-26T16:29:33.681Z,76.15
2018-03-26T16:30:22.797Z,69.12
2018-03-26T16:31:11.914Z,73.32
2018-03-26T16:32:01.035Z,72.57
2018-03-26T16:32:50.214Z,61.17
2018-03-26T16:33:39.340Z,45.35
2018-03-26T16:34:28.466Z,37.60
2018-03-26T16:35:17.600Z,49.13
2018-03-26T16:36:06.733Z,50.30
2018-03-26T16:36:55.850Z,50.85
2018-03-26T16:37:45.074Z,58.60
2018-03-26T16:38:34.200Z,52.55
2018-03-26T16:39:23.386Z,47.85
2018-03-26T16:40:12.519Z,192.43
2018-03-26T16:41:01.670Z,123.47
2018-03-26T16:41:50.905Z,318.33
2018-03-26T16:42:44.890Z,228.20
2018-03-26T16:43:34.083Z,312.48
2018-03-26T16:44:23.338Z,224.90
2018-03-26T16:45:12.468Z,231.90
2018-03-26T16:46:01.642Z,214.63
2018-03-26T16:46:50.787Z,205.93
2018-03-26T16:47:39.934Z,204.35
2018-03-26T16:48:29.090Z,216.20
2018-03-26T16:49:18.234Z,219.87
2018-03-26T16:50:07.455Z,193.65
2018-03-26T16:50:56.624Z,211.12
2018-03-26T16:51:45.816Z,200.45
2018-03-26T16:52:34.949Z,195.10
2018-03-26T16:53:24.087Z,197.82
2018-03-26T16:54:13.215Z,209.62
2018-03-26T16:55:02.350Z,210.82
2018-03-26T16:55:51.589Z,194.20
2018-03-26T16:56:40.731Z,196.85
2018-03-26T16:57:29.871Z,190.18
2018-03-26T16:58:19.007Z,177.77
2018-03-26T16:59:08.142Z,175.12
2018-03-26T16:59:57.299Z,160.30
2018-03-26T17:00:46.459Z,172.48
2018-03-26T17:01:35.714Z,163.82
2018-03-26T17:02:24.855Z,142.93
2018-03-26T17:03:14.043Z,1024.15
2018-03-26T17:04:03.492Z,428.00
2018-03-26T17:04:52.630Z,303.25
2018-03-26T17:05:41.757Z,244.65
2018-03-26T17:06:30.896Z,233.38
2018-03-26T17:07:20.091Z,210.55
2018-03-26T17:08:09.215Z,128.55
2018-03-26T17:08:58.356Z,104.30
2018-03-26T17:09:47.495Z,120.62
2018-03-26T17:10:36.677Z,133.93
2018-03-26T17:11:25.813Z,123.75
2018-03-26T17:12:14.942Z,133.07
2018-03-26T17:13:04.124Z,151.30
2018-03-26T17:13:53.261Z,148.62
2018-03-26T17:14:42.399Z,244.37
2018-03-26T17:15:31.530Z,186.57
2018-03-26T17:16:20.664Z,182.35
2018-03-26T17:17:09.803Z,209.55
2018-03-26T17:17:58.937Z,225.18
2018-03-26T17:18:48.256Z,203.10
2018-03-26T17:19:37.437Z,201.05
2018-03-26T17:20:26.565Z,219.95
2018-03-26T17:21:15.698Z,213.82
2018-03-26T17:22:04.896Z,162.15
2018-03-26T17:22:54.085Z,165.37
2018-03-26T17:23:43.215Z,171.60
2018-03-26T17:24:32.644Z,235.70
2018-03-26T17:25:21.861Z,159.45
2018-03-26T17:26:10.983Z,139.35
2018-03-26T17:27:00.117Z,157.90
2018-03-26T17:27:49.248Z,152.98
2018-03-26T17:28:38.390Z,138.85
2018-03-26T17:29:27.524Z,131.57
2018-03-26T17:30:16.707Z,126.47
2018-03-26T17:31:05.887Z,119.45
2018-03-26T17:31:55.037Z,117.82